San Diego, California
Traffic Map
Current Weather Conditions
San Diego, California
Scattered Clouds
Scattered Clouds
21°
Feels Like: 21°
Wind Chill: 21° Ceiling: Unl
Heat Index: 21° Visibility: 8mi
Dew Point: 17° Wind: 5mph
Humidity: 78% Direction: 290° (WNW)
Pressure: 29.94in Gusts: 0mph
Raw Report DataKSAN 230251Z 29004KT 8SM SCT200 21/17 A2994 RMK AO2 SLP138 T02110172 53012
Traffic Incident Summary
Active as of:
Severity:
Category:
InformationThere was an issue retrieving the traffic information for this location. Please try a different location or try again shortly.
Advertisements
Track Severe Weather on mobile